sensor_id;sensor_type;location;lat;lon;timestamp;temperature;humidity
35593;DHT22;64447;52.140;5.602;2023-03-17T00:00:11;9.80;80.70
35593;DHT22;64447;52.140;5.602;2023-03-17T00:02:39;9.80;80.60
35593;DHT22;64447;52.140;5.602;2023-03-17T00:05:33;9.80;80.60
35593;DHT22;64447;52.140;5.602;2023-03-17T00:08:21;10.30;80.90
35593;DHT22;64447;52.140;5.602;2023-03-17T00:10:48;9.90;80.10
35593;DHT22;64447;52.140;5.602;2023-03-17T00:13:13;9.90;80.00
35593;DHT22;64447;52.140;5.602;2023-03-17T00:15:40;10.00;79.40
35593;DHT22;64447;52.140;5.602;2023-03-17T00:18:13;10.10;79.50
35593;DHT22;64447;52.140;5.602;2023-03-17T00:20:39;10.20;78.80
35593;DHT22;64447;52.140;5.602;2023-03-17T00:23:08;10.00;79.60
35593;DHT22;64447;52.140;5.602;2023-03-17T00:25:35;10.00;79.60
35593;DHT22;64447;52.140;5.602;2023-03-17T00:28:01;10.10;79.00
35593;DHT22;64447;52.140;5.602;2023-03-17T00:30:29;10.40;79.50
35593;DHT22;64447;52.140;5.602;2023-03-17T00:32:56;9.80;79.30
35593;DHT22;64447;52.140;5.602;2023-03-17T00:35:27;10.00;79.50
35593;DHT22;64447;52.140;5.602;2023-03-17T00:37:55;9.80;79.30
35593;DHT22;64447;52.140;5.602;2023-03-17T00:40:26;9.80;79.40
35593;DHT22;64447;52.140;5.602;2023-03-17T00:42:56;10.00;79.00
35593;DHT22;64447;52.140;5.602;2023-03-17T00:45:23;10.00;78.80
35593;DHT22;64447;52.140;5.602;2023-03-17T00:47:51;10.00;78.30
35593;DHT22;64447;52.140;5.602;2023-03-17T00:50:26;10.40;78.30
35593;DHT22;64447;52.140;5.602;2023-03-17T00:52:53;10.10;78.00
35593;DHT22;64447;52.140;5.602;2023-03-17T00:55:21;10.00;78.20
35593;DHT22;64447;52.140;5.602;2023-03-17T00:57:47;10.00;78.10
35593;DHT22;64447;52.140;5.602;2023-03-17T01:00:24;10.00;78.20
35593;DHT22;64447;52.140;5.602;2023-03-17T01:02:52;10.10;77.80
35593;DHT22;64447;52.140;5.602;2023-03-17T01:05:19;10.00;77.90
35593;DHT22;64447;52.140;5.602;2023-03-17T01:07:47;10.00;77.90
35593;DHT22;64447;52.140;5.602;2023-03-17T01:10:20;10.00;78.00
35593;DHT22;64447;52.140;5.602;2023-03-17T01:12:48;10.40;78.10
35593;DHT22;64447;52.140;5.602;2023-03-17T01:15:14;9.90;78.00
35593;DHT22;64447;52.140;5.602;2023-03-17T01:17:40;9.80;78.20
35593;DHT22;64447;52.140;5.602;2023-03-17T01:20:09;9.90;78.80
35593;DHT22;64447;52.140;5.602;2023-03-17T01:22:35;9.70;78.70
35593;DHT22;64447;52.140;5.602;2023-03-17T01:25:01;10.00;78.90
35593;DHT22;64447;52.140;5.602;2023-03-17T01:27:27;9.50;78.70
35593;DHT22;64447;52.140;5.602;2023-03-17T01:29:53;9.60;79.30
35593;DHT22;64447;52.140;5.602;2023-03-17T01:32:20;9.40;79.80
35593;DHT22;64447;52.140;5.602;2023-03-17T01:34:46;9.50;79.80
35593;DHT22;64447;52.140;5.602;2023-03-17T01:37:12;9.60;80.00
35593;DHT22;64447;52.140;5.602;2023-03-17T01:43:17;9.50;79.00
35593;DHT22;64447;52.140;5.602;2023-03-17T01:54:13;9.80;79.50
35593;DHT22;64447;52.140;5.602;2023-03-17T01:56:42;9.50;79.20
35593;DHT22;64447;52.140;5.602;2023-03-17T01:59:12;9.60;79.00
35593;DHT22;64447;52.140;5.602;2023-03-17T02:01:42;9.60;78.90
35593;DHT22;64447;52.140;5.602;2023-03-17T02:04:09;9.50;78.90
35593;DHT22;64447;52.140;5.602;2023-03-17T02:06:36;9.50;79.20
35593;DHT22;64447;52.140;5.602;2023-03-17T02:09:02;9.60;79.20
35593;DHT22;64447;52.140;5.602;2023-03-17T02:11:29;9.50;79.00
35593;DHT22;64447;52.140;5.602;2023-03-17T02:13:54;9.50;79.10
35593;DHT22;64447;52.140;5.602;2023-03-17T02:16:20;9.80;79.30
35593;DHT22;64447;52.140;5.602;2023-03-17T02:18:46;10.20;79.80
35593;DHT22;64447;52.140;5.602;2023-03-17T02:23:53;9.50;78.70
35593;DHT22;64447;52.140;5.602;2023-03-17T02:26:20;9.40;79.10
35593;DHT22;64447;52.140;5.602;2023-03-17T02:28:48;9.50;79.40
35593;DHT22;64447;52.140;5.602;2023-03-17T02:31:14;9.40;79.30
35593;DHT22;64447;52.140;5.602;2023-03-17T02:33:40;9.20;80.00
35593;DHT22;64447;52.140;5.602;2023-03-17T02:36:07;9.20;79.90
35593;DHT22;64447;52.140;5.602;2023-03-17T02:38:34;9.20;79.70
35593;DHT22;64447;52.140;5.602;2023-03-17T02:40:59;9.20;79.80
35593;DHT22;64447;52.140;5.602;2023-03-17T02:43:25;9.10;80.20
35593;DHT22;64447;52.140;5.602;2023-03-17T02:45:51;9.20;80.00
35593;DHT22;64447;52.140;5.602;2023-03-17T02:48:17;10.10;80.10
35593;DHT22;64447;52.140;5.602;2023-03-17T02:50:43;9.30;79.50
35593;DHT22;64447;52.140;5.602;2023-03-17T02:53:09;9.30;79.00
35593;DHT22;64447;52.140;5.602;2023-03-17T02:55:34;9.30;79.20
35593;DHT22;64447;52.140;5.602;2023-03-17T02:58:00;9.30;79.10
35593;DHT22;64447;52.140;5.602;2023-03-17T03:00:27;9.30;79.20
35593;DHT22;64447;52.140;5.602;2023-03-17T03:02:54;9.20;79.50
35593;DHT22;64447;52.140;5.602;2023-03-17T03:05:19;9.20;79.40
35593;DHT22;64447;52.140;5.602;2023-03-17T03:07:45;9.20;78.90
35593;DHT22;64447;52.140;5.602;2023-03-17T03:10:11;9.20;79.40
35593;DHT22;64447;52.140;5.602;2023-03-17T03:12:37;9.40;79.20
35593;DHT22;64447;52.140;5.602;2023-03-17T03:15:06;9.30;79.10
35593;DHT22;64447;52.140;5.602;2023-03-17T03:17:32;9.40;79.30
35593;DHT22;64447;52.140;5.602;2023-03-17T03:19:59;9.30;78.90
35593;DHT22;64447;52.140;5.602;2023-03-17T03:22:25;9.30;78.60
35593;DHT22;64447;52.140;5.602;2023-03-17T03:28:12;9.40;78.70
35593;DHT22;64447;52.140;5.602;2023-03-17T03:30:38;9.50;78.80
35593;DHT22;64447;52.140;5.602;2023-03-17T03:33:04;9.40;77.90
35593;DHT22;64447;52.140;5.602;2023-03-17T03:35:31;9.60;78.30
35593;DHT22;64447;52.140;5.602;2023-03-17T03:37:57;9.50;77.80
35593;DHT22;64447;52.140;5.602;2023-03-17T03:40:23;9.60;77.90
35593;DHT22;64447;52.140;5.602;2023-03-17T03:42:49;9.50;77.70
35593;DHT22;64447;52.140;5.602;2023-03-17T03:45:15;9.70;77.50
35593;DHT22;64447;52.140;5.602;2023-03-17T03:47:40;9.60;76.90
35593;DHT22;64447;52.140;5.602;2023-03-17T03:50:07;9.60;77.10
35593;DHT22;64447;52.140;5.602;2023-03-17T03:52:33;9.70;77.60
35593;DHT22;64447;52.140;5.602;2023-03-17T03:58:21;9.60;77.20
35593;DHT22;64447;52.140;5.602;2023-03-17T04:00:47;9.60;76.60
35593;DHT22;64447;52.140;5.602;2023-03-17T04:03:13;9.50;77.40
35593;DHT22;64447;52.140;5.602;2023-03-17T04:05:39;9.40;77.70
35593;DHT22;64447;52.140;5.602;2023-03-17T04:08:05;9.30;79.10
35593;DHT22;64447;52.140;5.602;2023-03-17T04:10:32;9.40;78.30
35593;DHT22;64447;52.140;5.602;2023-03-17T04:12:57;9.50;78.30
35593;DHT22;64447;52.140;5.602;2023-03-17T04:15:23;9.60;78.00
35593;DHT22;64447;52.140;5.602;2023-03-17T04:17:49;9.60;77.40
35593;DHT22;64447;52.140;5.602;2023-03-17T04:20:15;9.70;77.50
35593;DHT22;64447;52.140;5.602;2023-03-17T04:22:42;9.70;76.90
35593;DHT22;64447;52.140;5.602;2023-03-17T04:28:30;9.70;77.10
35593;DHT22;64447;52.140;5.602;2023-03-17T04:30:55;9.40;78.10
35593;DHT22;64447;52.140;5.602;2023-03-17T04:33:21;9.40;78.40
35593;DHT22;64447;52.140;5.602;2023-03-17T04:35:47;9.80;78.40
35593;DHT22;64447;52.140;5.602;2023-03-17T04:38:12;9.70;78.10
35593;DHT22;64447;52.140;5.602;2023-03-17T04:40:38;9.40;78.20
35593;DHT22;64447;52.140;5.602;2023-03-17T04:43:04;9.50;78.60
35593;DHT22;64447;52.140;5.602;2023-03-17T04:45:29;9.50;78.60
35593;DHT22;64447;52.140;5.602;2023-03-17T04:47:55;9.50;78.50
35593;DHT22;64447;52.140;5.602;2023-03-17T04:50:20;10.00;77.90
35593;DHT22;64447;52.140;5.602;2023-03-17T04:52:46;9.60;78.50
35593;DHT22;64447;52.140;5.602;2023-03-17T04:58:33;9.40;79.30
35593;DHT22;64447;52.140;5.602;2023-03-17T05:00:59;9.50;79.20
35593;DHT22;64447;52.140;5.602;2023-03-17T05:03:26;9.50;78.90
35593;DHT22;64447;52.140;5.602;2023-03-17T05:05:52;9.60;78.80
35593;DHT22;64447;52.140;5.602;2023-03-17T05:08:18;9.50;78.90
35593;DHT22;64447;52.140;5.602;2023-03-17T05:10:44;10.20;79.40
35593;DHT22;64447;52.140;5.602;2023-03-17T05:13:10;9.60;78.10
35593;DHT22;64447;52.140;5.602;2023-03-17T05:15:35;9.50;78.50
35593;DHT22;64447;52.140;5.602;2023-03-17T05:18:01;9.60;78.30
35593;DHT22;64447;52.140;5.602;2023-03-17T05:20:27;9.70;78.00
35593;DHT22;64447;52.140;5.602;2023-03-17T05:22:53;9.70;78.40
35593;DHT22;64447;52.140;5.602;2023-03-17T05:28:40;9.60;78.70
35593;DHT22;64447;52.140;5.602;2023-03-17T05:31:06;9.60;79.00
35593;DHT22;64447;52.140;5.602;2023-03-17T05:33:33;9.40;78.90
35593;DHT22;64447;52.140;5.602;2023-03-17T05:35:58;9.50;78.70
35593;DHT22;64447;52.140;5.602;2023-03-17T05:38:24;9.60;79.00
35593;DHT22;64447;52.140;5.602;2023-03-17T05:40:50;10.50;80.00
35593;DHT22;64447;52.140;5.602;2023-03-17T05:43:17;10.00;79.90
35593;DHT22;64447;52.140;5.602;2023-03-17T05:45:42;9.40;79.50
35593;DHT22;64447;52.140;5.602;2023-03-17T05:48:09;9.50;79.50
35593;DHT22;64447;52.140;5.602;2023-03-17T05:50:36;9.60;79.10
35593;DHT22;64447;52.140;5.602;2023-03-17T05:53:02;9.50;79.00
35593;DHT22;64447;52.140;5.602;2023-03-17T05:58:49;9.50;78.80
35593;DHT22;64447;52.140;5.602;2023-03-17T06:01:15;9.60;79.00
35593;DHT22;64447;52.140;5.602;2023-03-17T06:03:41;9.60;79.10
35593;DHT22;64447;52.140;5.602;2023-03-17T06:06:06;9.80;79.40
35593;DHT22;64447;52.140;5.602;2023-03-17T06:08:33;9.60;79.40
35593;DHT22;64447;52.140;5.602;2023-03-17T06:10:59;9.60;79.60
35593;DHT22;64447;52.140;5.602;2023-03-17T06:13:25;10.10;79.80
35593;DHT22;64447;52.140;5.602;2023-03-17T06:15:50;9.70;79.80
35593;DHT22;64447;52.140;5.602;2023-03-17T06:18:16;9.60;80.60
35593;DHT22;64447;52.140;5.602;2023-03-17T06:20:44;9.40;80.70
35593;DHT22;64447;52.140;5.602;2023-03-17T06:23:09;9.40;80.40
35593;DHT22;64447;52.140;5.602;2023-03-17T06:28:57;9.40;80.60
35593;DHT22;64447;52.140;5.602;2023-03-17T06:31:22;9.40;81.10
35593;DHT22;64447;52.140;5.602;2023-03-17T06:33:48;9.20;81.00
35593;DHT22;64447;52.140;5.602;2023-03-17T06:36:14;9.30;81.20
35593;DHT22;64447;52.140;5.602;2023-03-17T06:38:39;9.60;81.10
35593;DHT22;64447;52.140;5.602;2023-03-17T06:41:05;9.90;81.40
35593;DHT22;64447;52.140;5.602;2023-03-17T06:43:31;9.30;81.20
35593;DHT22;64447;52.140;5.602;2023-03-17T06:45:57;9.30;81.00
35593;DHT22;64447;52.140;5.602;2023-03-17T06:48:23;9.40;82.10
35593;DHT22;64447;52.140;5.602;2023-03-17T06:50:49;9.60;81.00
35593;DHT22;64447;52.140;5.602;2023-03-17T06:53:15;9.40;81.00
35593;DHT22;64447;52.140;5.602;2023-03-17T06:59:02;9.50;80.50
35593;DHT22;64447;52.140;5.602;2023-03-17T07:01:29;9.30;81.00
35593;DHT22;64447;52.140;5.602;2023-03-17T07:03:54;9.50;81.30
35593;DHT22;64447;52.140;5.602;2023-03-17T07:06:20;9.50;81.50
35593;DHT22;64447;52.140;5.602;2023-03-17T07:08:48;9.60;80.50
35593;DHT22;64447;52.140;5.602;2023-03-17T07:11:13;9.70;80.60
35593;DHT22;64447;52.140;5.602;2023-03-17T07:13:40;9.90;79.90
35593;DHT22;64447;52.140;5.602;2023-03-17T07:16:06;10.00;79.80
35593;DHT22;64447;52.140;5.602;2023-03-17T07:18:32;10.00;79.40
35593;DHT22;64447;52.140;5.602;2023-03-17T07:21:01;10.10;78.80
35593;DHT22;64447;52.140;5.602;2023-03-17T07:23:27;10.10;79.10
35593;DHT22;64447;52.140;5.602;2023-03-17T07:29:16;10.00;80.00
35593;DHT22;64447;52.140;5.602;2023-03-17T07:31:43;9.90;79.40
35593;DHT22;64447;52.140;5.602;2023-03-17T07:34:08;10.00;79.90
35593;DHT22;64447;52.140;5.602;2023-03-17T07:36:35;10.00;80.20
35593;DHT22;64447;52.140;5.602;2023-03-17T07:39:01;10.20;80.00
35593;DHT22;64447;52.140;5.602;2023-03-17T07:41:28;10.30;79.50
35593;DHT22;64447;52.140;5.602;2023-03-17T07:43:53;10.40;79.30
35593;DHT22;64447;52.140;5.602;2023-03-17T07:46:19;10.40;78.90
35593;DHT22;64447;52.140;5.602;2023-03-17T07:48:45;10.40;79.00
35593;DHT22;64447;52.140;5.602;2023-03-17T07:51:13;10.40;78.90
35593;DHT22;64447;52.140;5.602;2023-03-17T07:53:39;10.40;78.90
35593;DHT22;64447;52.140;5.602;2023-03-17T07:59:28;10.40;78.80
35593;DHT22;64447;52.140;5.602;2023-03-17T08:01:53;10.40;78.80
35593;DHT22;64447;52.140;5.602;2023-03-17T08:04:19;10.50;78.80
35593;DHT22;64447;52.140;5.602;2023-03-17T08:06:44;10.90;78.80
35593;DHT22;64447;52.140;5.602;2023-03-17T08:09:11;10.60;78.80
35593;DHT22;64447;52.140;5.602;2023-03-17T08:11:37;10.40;79.00
35593;DHT22;64447;52.140;5.602;2023-03-17T08:14:04;10.50;79.30
35593;DHT22;64447;52.140;5.602;2023-03-17T08:16:30;10.60;79.20
35593;DHT22;64447;52.140;5.602;2023-03-17T08:18:56;10.60;79.00
35593;DHT22;64447;52.140;5.602;2023-03-17T08:21:24;10.70;79.60
35593;DHT22;64447;52.140;5.602;2023-03-17T08:23:51;10.80;79.30
35593;DHT22;64447;52.140;5.602;2023-03-17T08:26:17;10.80;79.50
35593;DHT22;64447;52.140;5.602;2023-03-17T08:28:43;10.90;78.80
35593;DHT22;64447;52.140;5.602;2023-03-17T08:31:15;10.90;78.50
35593;DHT22;64447;52.140;5.602;2023-03-17T08:33:44;11.00;79.20
35593;DHT22;64447;52.140;5.602;2023-03-17T08:36:10;11.30;79.10
35593;DHT22;64447;52.140;5.602;2023-03-17T08:38:38;11.20;79.50
35593;DHT22;64447;52.140;5.602;2023-03-17T08:44:26;11.10;79.20
35593;DHT22;64447;52.140;5.602;2023-03-17T08:46:52;11.10;79.60
35593;DHT22;64447;52.140;5.602;2023-03-17T08:49:18;11.10;80.00
35593;DHT22;64447;52.140;5.602;2023-03-17T08:51:44;11.10;79.10
35593;DHT22;64447;52.140;5.602;2023-03-17T08:54:10;11.20;78.90
35593;DHT22;64447;52.140;5.602;2023-03-17T08:56:36;11.20;78.50
35593;DHT22;64447;52.140;5.602;2023-03-17T08:59:06;11.80;79.20
35593;DHT22;64447;52.140;5.602;2023-03-17T09:01:34;11.40;78.70
35593;DHT22;64447;52.140;5.602;2023-03-17T09:04:00;11.40;78.70
35593;DHT22;64447;52.140;5.602;2023-03-17T09:06:27;11.50;78.50
35593;DHT22;64447;52.140;5.602;2023-03-17T09:08:53;11.60;78.30
35593;DHT22;64447;52.140;5.602;2023-03-17T09:14:43;11.60;78.20
35593;DHT22;64447;52.140;5.602;2023-03-17T09:17:09;11.60;78.70
35593;DHT22;64447;52.140;5.602;2023-03-17T09:19:35;11.80;78.20
35593;DHT22;64447;52.140;5.602;2023-03-17T09:22:02;11.80;77.50
35593;DHT22;64447;52.140;5.602;2023-03-17T09:24:27;11.90;77.40
35593;DHT22;64447;52.140;5.602;2023-03-17T09:26:53;11.80;78.10
35593;DHT22;64447;52.140;5.602;2023-03-17T09:29:18;11.80;77.80
35593;DHT22;64447;52.140;5.602;2023-03-17T09:31:44;11.90;78.20
35593;DHT22;64447;52.140;5.602;2023-03-17T09:34:11;12.00;78.50
35593;DHT22;64447;52.140;5.602;2023-03-17T09:36:37;12.10;78.00
35593;DHT22;64447;52.140;5.602;2023-03-17T09:39:02;12.30;78.20
35593;DHT22;64447;52.140;5.602;2023-03-17T09:49:58;12.40;77.10
35593;DHT22;64447;52.140;5.602;2023-03-17T09:52:30;12.30;76.60
35593;DHT22;64447;52.140;5.602;2023-03-17T09:54:56;12.40;77.50
35593;DHT22;64447;52.140;5.602;2023-03-17T09:57:36;12.50;77.30
35593;DHT22;64447;52.140;5.602;2023-03-17T10:00:13;12.50;77.40
35593;DHT22;64447;52.140;5.602;2023-03-17T10:02:40;12.60;77.50
35593;DHT22;64447;52.140;5.602;2023-03-17T10:07:44;12.60;77.50
35593;DHT22;64447;52.140;5.602;2023-03-17T10:10:38;12.70;78.20
35593;DHT22;64447;52.140;5.602;2023-03-17T10:16:02;12.70;77.90
35593;DHT22;64447;52.140;5.602;2023-03-17T10:18:36;12.60;78.00
35593;DHT22;64447;52.140;5.602;2023-03-17T10:21:08;12.60;78.20
35593;DHT22;64447;52.140;5.602;2023-03-17T10:23:35;12.70;78.80
35593;DHT22;64447;52.140;5.602;2023-03-17T10:26:32;12.80;78.10
35593;DHT22;64447;52.140;5.602;2023-03-17T10:29:00;12.90;78.20
35593;DHT22;64447;52.140;5.602;2023-03-17T10:31:33;13.00;78.40
35593;DHT22;64447;52.140;5.602;2023-03-17T10:34:15;13.00;77.60
35593;DHT22;64447;52.140;5.602;2023-03-17T10:36:48;13.10;77.00
35593;DHT22;64447;52.140;5.602;2023-03-17T10:42:51;13.20;78.00
35593;DHT22;64447;52.140;5.602;2023-03-17T10:45:28;13.20;77.90
35593;DHT22;64447;52.140;5.602;2023-03-17T10:47:57;13.30;77.60
35593;DHT22;64447;52.140;5.602;2023-03-17T10:52:59;13.50;76.90
35593;DHT22;64447;52.140;5.602;2023-03-17T10:58:49;13.70;76.20
35593;DHT22;64447;52.140;5.602;2023-03-17T11:01:27;14.10;81.10
35593;DHT22;64447;52.140;5.602;2023-03-17T11:03:54;14.20;77.00
35593;DHT22;64447;52.140;5.602;2023-03-17T11:06:36;14.20;80.20
35593;DHT22;64447;52.140;5.602;2023-03-17T11:09:08;14.70;82.10
35593;DHT22;64447;52.140;5.602;2023-03-17T11:15:05;14.40;87.60
35593;DHT22;64447;52.140;5.602;2023-03-17T11:20:51;14.60;95.60
35593;DHT22;64447;52.140;5.602;2023-03-17T11:29:02;14.80;97.80
35593;DHT22;64447;52.140;5.602;2023-03-17T11:43:12;14.80;74.40
35593;DHT22;64447;52.140;5.602;2023-03-17T11:45:56;14.90;73.90
35593;DHT22;64447;52.140;5.602;2023-03-17T11:48:29;15.20;73.70
35593;DHT22;64447;52.140;5.602;2023-03-17T11:51:22;15.30;73.60
35593;DHT22;64447;52.140;5.602;2023-03-17T11:59:00;15.20;75.40
35593;DHT22;64447;52.140;5.602;2023-03-17T12:01:52;15.30;75.00
35593;DHT22;64447;52.140;5.602;2023-03-17T12:04:28;15.20;73.70
35593;DHT22;64447;52.140;5.602;2023-03-17T12:07:19;15.10;73.60
35593;DHT22;64447;52.140;5.602;2023-03-17T12:09:57;15.30;74.20
35593;DHT22;64447;52.140;5.602;2023-03-17T12:12:31;15.40;73.20
35593;DHT22;64447;52.140;5.602;2023-03-17T12:14:59;15.30;73.70
35593;DHT22;64447;52.140;5.602;2023-03-17T12:17:33;15.30;74.00
35593;DHT22;64447;52.140;5.602;2023-03-17T12:20:37;15.40;73.70
35593;DHT22;64447;52.140;5.602;2023-03-17T12:26:11;15.80;73.20
35593;DHT22;64447;52.140;5.602;2023-03-17T15:20:49;16.70;68.70
35593;DHT22;64447;52.140;5.602;2023-03-17T15:23:17;16.70;69.40
35593;DHT22;64447;52.140;5.602;2023-03-17T15:25:45;16.70;68.90
35593;DHT22;64447;52.140;5.602;2023-03-17T15:28:16;16.70;69.50
35593;DHT22;64447;52.140;5.602;2023-03-17T15:30:45;16.60;70.00
35593;DHT22;64447;52.140;5.602;2023-03-17T15:35:53;16.60;68.70
35593;DHT22;64447;52.140;5.602;2023-03-17T15:38:22;16.70;69.50
35593;DHT22;64447;52.140;5.602;2023-03-17T15:40:48;16.70;69.10
35593;DHT22;64447;52.140;5.602;2023-03-17T15:43:15;16.80;68.90
35593;DHT22;64447;52.140;5.602;2023-03-17T15:45:42;16.80;68.90
35593;DHT22;64447;52.140;5.602;2023-03-17T15:48:18;16.90;68.60
35593;DHT22;64447;52.140;5.602;2023-03-17T15:50:46;16.90;68.70
35593;DHT22;64447;52.140;5.602;2023-03-17T15:53:13;16.90;67.70
35593;DHT22;64447;52.140;5.602;2023-03-17T15:55:39;17.00;68.10
35593;DHT22;64447;52.140;5.602;2023-03-17T15:58:04;16.90;67.20
35593;DHT22;64447;52.140;5.602;2023-03-17T16:00:30;16.80;67.10
35593;DHT22;64447;52.140;5.602;2023-03-17T16:05:34;17.00;67.80
35593;DHT22;64447;52.140;5.602;2023-03-17T16:08:00;16.90;67.70
35593;DHT22;64447;52.140;5.602;2023-03-17T16:10:28;17.10;67.50
35593;DHT22;64447;52.140;5.602;2023-03-17T16:16:20;17.40;67.20
35593;DHT22;64447;52.140;5.602;2023-03-17T16:18:52;17.50;67.10
35593;DHT22;64447;52.140;5.602;2023-03-17T16:21:19;17.40;67.50
35593;DHT22;64447;52.140;5.602;2023-03-17T16:23:47;17.50;67.00
35593;DHT22;64447;52.140;5.602;2023-03-17T16:26:13;17.50;66.50
35593;DHT22;64447;52.140;5.602;2023-03-17T16:28:39;17.60;67.30
35593;DHT22;64447;52.140;5.602;2023-03-17T16:31:15;17.60;67.00
35593;DHT22;64447;52.140;5.602;2023-03-17T16:33:40;17.60;66.80
35593;DHT22;64447;52.140;5.602;2023-03-17T16:36:07;17.40;66.50
35593;DHT22;64447;52.140;5.602;2023-03-17T16:38:33;17.40;67.00
35593;DHT22;64447;52.140;5.602;2023-03-17T16:43:53;17.50;67.50
35593;DHT22;64447;52.140;5.602;2023-03-17T16:46:22;17.40;67.60
35593;DHT22;64447;52.140;5.602;2023-03-17T17:47:55;16.50;71.70
35593;DHT22;64447;52.140;5.602;2023-03-17T17:50:25;16.50;72.50
35593;DHT22;64447;52.140;5.602;2023-03-17T17:52:51;16.60;72.70
35593;DHT22;64447;52.140;5.602;2023-03-17T17:55:17;16.50;73.10
35593;DHT22;64447;52.140;5.602;2023-03-17T17:57:43;16.50;73.30
35593;DHT22;64447;52.140;5.602;2023-03-17T18:00:12;16.50;73.30
35593;DHT22;64447;52.140;5.602;2023-03-17T18:02:38;16.50;73.40
35593;DHT22;64447;52.140;5.602;2023-03-17T18:05:05;16.50;73.50
35593;DHT22;64447;52.140;5.602;2023-03-17T18:07:33;16.40;73.70
35593;DHT22;64447;52.140;5.602;2023-03-17T18:09:59;16.40;73.90
35593;DHT22;64447;52.140;5.602;2023-03-17T18:12:24;16.40;73.80
35593;DHT22;64447;52.140;5.602;2023-03-17T18:14:50;16.40;73.90
35593;DHT22;64447;52.140;5.602;2023-03-17T18:17:16;16.40;74.10
35593;DHT22;64447;52.140;5.602;2023-03-17T18:19:48;16.40;74.10
35593;DHT22;64447;52.140;5.602;2023-03-17T18:22:14;16.20;73.80
35593;DHT22;64447;52.140;5.602;2023-03-17T18:24:44;16.20;74.30
35593;DHT22;64447;52.140;5.602;2023-03-17T18:29:36;16.10;74.90
35593;DHT22;64447;52.140;5.602;2023-03-17T18:32:01;16.10;75.20
35593;DHT22;64447;52.140;5.602;2023-03-17T18:34:33;16.10;75.10
35593;DHT22;64447;52.140;5.602;2023-03-17T18:37:02;16.10;75.30
35593;DHT22;64447;52.140;5.602;2023-03-17T18:39:28;16.10;75.10
35593;DHT22;64447;52.140;5.602;2023-03-17T18:41:54;16.10;75.10
35593;DHT22;64447;52.140;5.602;2023-03-17T18:44:20;16.10;75.30
35593;DHT22;64447;52.140;5.602;2023-03-17T18:46:47;16.10;75.70
35593;DHT22;64447;52.140;5.602;2023-03-17T18:51:39;16.10;76.00
35593;DHT22;64447;52.140;5.602;2023-03-17T18:54:05;16.00;76.00
35593;DHT22;64447;52.140;5.602;2023-03-17T18:59:53;16.00;76.50
35593;DHT22;64447;52.140;5.602;2023-03-17T19:02:19;16.00;76.70
35593;DHT22;64447;52.140;5.602;2023-03-17T19:04:44;15.90;76.80
35593;DHT22;64447;52.140;5.602;2023-03-17T19:07:13;15.90;76.90
35593;DHT22;64447;52.140;5.602;2023-03-17T19:09:39;15.90;77.10
35593;DHT22;64447;52.140;5.602;2023-03-17T19:12:05;15.90;77.20
35593;DHT22;64447;52.140;5.602;2023-03-17T19:14:33;15.90;77.20
35593;DHT22;64447;52.140;5.602;2023-03-17T19:16:58;15.80;77.10
35593;DHT22;64447;52.140;5.602;2023-03-17T19:19:24;15.90;77.30
35593;DHT22;64447;52.140;5.602;2023-03-17T19:21:50;15.80;77.40
35593;DHT22;64447;52.140;5.602;2023-03-17T19:24:16;15.80;77.50
35593;DHT22;64447;52.140;5.602;2023-03-17T19:26:41;15.80;77.90
35593;DHT22;64447;52.140;5.602;2023-03-17T19:29:07;15.80;78.60
35593;DHT22;64447;52.140;5.602;2023-03-17T19:31:34;15.80;78.10
35593;DHT22;64447;52.140;5.602;2023-03-17T19:34:06;15.80;78.20
35593;DHT22;64447;52.140;5.602;2023-03-17T19:36:36;15.80;78.20
35593;DHT22;64447;52.140;5.602;2023-03-17T19:39:04;15.70;78.10
35593;DHT22;64447;52.140;5.602;2023-03-17T19:41:29;15.70;78.10
35593;DHT22;64447;52.140;5.602;2023-03-17T19:43:59;15.70;78.00
35593;DHT22;64447;52.140;5.602;2023-03-17T19:46:28;15.70;78.00
35593;DHT22;64447;52.140;5.602;2023-03-17T19:48:54;15.70;77.80
35593;DHT22;64447;52.140;5.602;2023-03-17T19:51:24;15.70;77.70
35593;DHT22;64447;52.140;5.602;2023-03-17T19:53:51;15.80;77.60
35593;DHT22;64447;52.140;5.602;2023-03-17T19:56:18;15.70;77.30
35593;DHT22;64447;52.140;5.602;2023-03-17T19:58:43;15.60;77.30
35593;DHT22;64447;52.140;5.602;2023-03-17T20:01:10;15.60;77.80
35593;DHT22;64447;52.140;5.602;2023-03-17T20:03:36;15.60;77.70
35593;DHT22;64447;52.140;5.602;2023-03-17T20:06:07;15.40;77.00
35593;DHT22;64447;52.140;5.602;2023-03-17T20:08:33;15.40;77.30
35593;DHT22;64447;52.140;5.602;2023-03-17T20:11:00;15.30;77.20
35593;DHT22;64447;52.140;5.602;2023-03-17T20:13:26;15.40;77.00
35593;DHT22;64447;52.140;5.602;2023-03-17T20:15:52;15.20;76.90
35593;DHT22;64447;52.140;5.602;2023-03-17T20:18:18;15.10;77.00
35593;DHT22;64447;52.140;5.602;2023-03-17T20:20:46;15.00;76.80
35593;DHT22;64447;52.140;5.602;2023-03-17T20:23:14;14.80;77.60
35593;DHT22;64447;52.140;5.602;2023-03-17T20:25:41;14.70;78.00
35593;DHT22;64447;52.140;5.602;2023-03-17T20:28:11;14.80;77.40
35593;DHT22;64447;52.140;5.602;2023-03-17T20:30:38;14.70;77.60
35593;DHT22;64447;52.140;5.602;2023-03-17T20:33:05;14.70;77.60
35593;DHT22;64447;52.140;5.602;2023-03-17T20:35:33;14.70;77.90
35593;DHT22;64447;52.140;5.602;2023-03-17T20:38:00;14.90;77.70
35593;DHT22;64447;52.140;5.602;2023-03-17T20:40:26;15.00;77.40
35593;DHT22;64447;52.140;5.602;2023-03-17T20:42:52;15.20;77.30
35593;DHT22;64447;52.140;5.602;2023-03-17T20:45:18;15.30;76.80
35593;DHT22;64447;52.140;5.602;2023-03-17T20:47:44;15.30;76.20
35593;DHT22;64447;52.140;5.602;2023-03-17T20:52:36;15.30;76.60
35593;DHT22;64447;52.140;5.602;2023-03-17T20:55:03;15.40;76.60
35593;DHT22;64447;52.140;5.602;2023-03-17T20:57:31;15.40;76.60
35593;DHT22;64447;52.140;5.602;2023-03-17T20:59:57;15.50;76.60
35593;DHT22;64447;52.140;5.602;2023-03-17T21:02:23;15.50;76.70
35593;DHT22;64447;52.140;5.602;2023-03-17T21:04:49;15.50;76.60
35593;DHT22;64447;52.140;5.602;2023-03-17T21:07:17;15.50;76.70
35593;DHT22;64447;52.140;5.602;2023-03-17T21:09:43;15.30;77.70
35593;DHT22;64447;52.140;5.602;2023-03-17T21:15:32;15.10;77.80
35593;DHT22;64447;52.140;5.602;2023-03-17T21:18:00;15.00;78.80
35593;DHT22;64447;52.140;5.602;2023-03-17T21:20:26;15.00;79.00
35593;DHT22;64447;52.140;5.602;2023-03-17T21:22:51;14.90;79.40
35593;DHT22;64447;52.140;5.602;2023-03-17T21:25:17;14.90;79.70
35593;DHT22;64447;52.140;5.602;2023-03-17T21:27:43;14.80;80.10
35593;DHT22;64447;52.140;5.602;2023-03-17T21:30:19;14.70;80.50
35593;DHT22;64447;52.140;5.602;2023-03-17T21:32:44;14.70;80.80
35593;DHT22;64447;52.140;5.602;2023-03-17T21:35:10;14.80;80.60
35593;DHT22;64447;52.140;5.602;2023-03-17T21:37:36;14.60;81.00
35593;DHT22;64447;52.140;5.602;2023-03-17T21:40:01;14.60;81.20
35593;DHT22;64447;52.140;5.602;2023-03-17T21:42:28;14.60;81.30
35593;DHT22;64447;52.140;5.602;2023-03-17T21:44:54;14.60;81.40